ESST/TYF METAR and TAF weather

Enter ICAO airport designator
Station Type Date Time Source
ESST METAR 2021/04/13 23:50 UTC NOAA

ESST 132350Z AUTO VRB02KT 9999 NCD M03/M04 Q1023


Station Type Date Time Source
ESST Decoded METAR 2021/04/13 23:50 UTC NOAA

Station name not available
Apr 13, 2021 - 07:50 PM EDT / 2021.04.13 2350 UTC
Wind: Variable at 2 MPH (2 KT):0
Visibility: greater than 7 mile(s):0
Temperature: 26 F (-3 C)
Dew Point: 24 F (-4 C)
Relative Humidity: 92%
Pressure (altimeter): 30.21 in. Hg (1023 hPa)
ob: ESST 132350Z AUTO VRB02KT 9999 NCD M03/M04 Q1023
cycle: 0

Station Type Date Time Source
ESST TAF UTC NOAA

Error!

Example: see airport list